Time;durP1;ratioP1;P1;durP2;ratioP2;P2;SDS_P1;SDS_P2;PMS_P1;PMS_P2;Temp;Humidity;BMP_temperature;BMP_pressure;BME280_temperature;BME280_humidity;BME280_pressure;Samples;Min_cycle;Max_cycle;Signal;HPM_P1;HPM_P2
2022/03/27 00:03:16;;;;;;;;;;;;;;;8.79;56.57;101049.41;12180953;19;20002;-81
2022/03/27 00:07:18;;;;;;;12.80;6.65;;;;;;;8.78;56.42;101055.13;12193824;19;20289;-81
2022/03/27 00:11:28;;;;;;;13.35;7.50;;;;;;;8.76;56.52;101043.47;12205728;19;20055;-80
2022/03/27 00:15:30;;;;;;;12.38;7.75;;;;;;;8.73;56.73;101046.66;12178860;19;20032;-82
2022/03/27 00:19:31;;;;;;;15.38;7.55;;;;;;;8.71;56.82;101040.50;12216049;19;20023;-82
2022/03/27 00:23:33;;;;;;;13.13;7.40;;;;;;;8.72;57.08;101042.22;12214411;19;20014;-81
2022/03/27 00:27:35;;;;;;;14.13;8.15;;;;;;;8.72;57.45;101042.22;12188678;19;20023;-80
2022/03/27 00:31:41;;;;;;;14.73;8.27;;;;;;;8.73;57.69;101043.91;12205756;19;20020;-80
2022/03/27 00:35:42;;;;;;;14.73;8.02;;;;;;;8.75;57.90;101041.81;12203624;19;20019;-81
2022/03/27 00:39:44;;;;;;;13.27;7.13;;;;;;;8.74;57.96;101037.34;12177065;19;20532;-81
2022/03/27 00:43:46;;;;;;;14.40;7.97;;;;;;;8.72;58.16;101043.06;12200784;19;20436;-79
2022/03/27 00:47:47;;;;;;;15.00;7.32;;;;;;;8.70;58.23;101036.06;12203758;19;20083;-80
2022/03/27 00:51:49;;;;;;;17.13;7.03;;;;;;;8.66;58.85;101033.75;12179596;19;20030;-82
2022/03/27 00:55:51;;;;;;;16.02;7.88;;;;;;;8.67;58.84;101034.59;12202795;19;20018;-80
2022/03/27 00:59:53;;;;;;;16.27;7.30;;;;;;;8.66;58.82;101043.91;12201875;19;20018;-80
2022/03/27 01:03:57;;;;;;;14.47;8.23;;;;;;;8.63;58.65;101039.66;12181719;19;20020;-79
2022/03/27 01:08:05;;;;;;;16.10;7.35;;;;;;;8.64;59.09;101027.59;12206100;19;20014;-80
2022/03/27 01:12:24;;;;;;;16.60;7.38;;;;;;;8.63;59.38;101025.06;12204793;19;20118;-80
2022/03/27 01:16:36;;;;;;;16.27;8.43;;;;;;;8.61;59.47;101022.53;12168593;19;20578;-80
2022/03/27 01:20:41;;;;;;;14.60;7.57;;;;;;;8.61;59.52;101019.78;12215530;19;20027;-80
2022/03/27 01:24:44;;;;;;;23.85;8.32;;;;;;;8.60;59.43;101015.34;12198610;19;20094;-79
2022/03/27 01:28:46;;;;;;;15.57;7.90;;;;;;;8.61;59.49;101014.28;12220771;19;20027;-80
2022/03/27 01:32:51;;;;;;;17.20;7.72;;;;;;;8.57;59.71;101018.50;12213964;19;20579;-80
2022/03/27 01:36:53;;;;;;;18.00;8.27;;;;;;;8.53;59.91;101013.63;12194731;19;20035;-80
2022/03/27 01:40:54;;;;;;;16.33;7.57;;;;;;;8.46;59.96;101016.34;12211679;19;20007;-79
2022/03/27 01:44:56;;;;;;;16.60;7.88;;;;;;;8.39;60.19;101005.34;12210322;19;20082;-80
2022/03/27 01:49:02;;;;;;;16.65;8.13;;;;;;;8.36;60.73;100999.41;12188205;19;20548;-80
2022/03/27 01:53:04;;;;;;;20.50;8.38;;;;;;;8.32;60.72;101009.09;12207947;19;20074;-79
2022/03/27 01:57:06;;;;;;;19.83;8.32;;;;;;;8.29;61.12;101009.50;12206518;19;20031;-80
2022/03/27 02:01:08;;;;;;;19.45;8.82;;;;;;;8.27;61.54;101009.72;12185489;19;20014;-79
2022/03/27 02:05:11;;;;;;;16.13;7.57;;;;;;;8.25;61.23;101008.22;12206578;19;20456;-79
2022/03/27 02:09:13;;;;;;;;;;;;;;;8.19;62.35;100991.50;12200202;19;20010;-78
2022/03/27 02:13:18;;;;;;;14.70;7.97;;;;;;;8.17;61.63;101001.00;12205221;19;20356;-79
2022/03/27 02:17:20;;;;;;;15.48;7.88;;;;;;;8.14;61.97;101007.75;12213045;19;20035;-78
2022/03/27 02:21:22;;;;;;;18.13;8.20;;;;;;;8.08;62.40;101000.31;12183885;19;20106;-78
2022/03/27 02:25:24;;;;;;;16.95;8.00;;;;;;;8.01;62.50;101002.22;12212977;19;20074;-78
2022/03/27 02:29:25;;;;;;;15.15;7.78;;;;;;;7.96;62.94;100999.22;12214109;19;20011;-78
2022/03/27 02:33:27;;;;;;;17.05;8.73;;;;;;;7.89;63.50;100998.34;12177357;19;20077;-78
2022/03/27 02:37:29;;;;;;;17.45;8.40;;;;;;;7.85;63.85;100997.03;12205141;19;20014;-79
2022/03/27 02:41:31;;;;;;;15.73;7.82;;;;;;;7.82;65.16;100990.06;12205284;19;20007;-78
2022/03/27 02:45:33;;;;;;;17.20;8.10;;;;;;;7.80;65.78;100988.59;12175891;19;21433;-78
2022/03/27 02:49:35;;;;;;;16.80;8.43;;;;;;;7.78;65.14;100986.03;12213692;19;20077;-78
2022/03/27 02:53:36;;;;;;;16.27;8.13;;;;;;;7.75;66.18;100983.69;12206262;19;20433;-78
2022/03/27 02:57:38;;;;;;;21.48;9.05;;;;;;;7.73;66.56;100992.16;12191447;19;20010;-78
2022/03/27 03:01:40;;;;;;;17.57;9.10;;;;;;;7.68;66.00;100983.66;12206642;19;20377;-78
2022/03/27 03:05:42;;;;;;;15.57;8.27;;;;;;;7.66;66.71;100993.16;12207419;19;20014;-79
2022/03/27 03:09:44;;;;;;;18.73;9.20;;;;;;;7.63;67.47;100997.13;12181746;19;20075;-78
2022/03/27 03:13:51;;;;;;;15.98;7.45;;;;;;;7.65;67.20;100994.19;12199854;19;20026;-79
2022/03/27 03:18:13;;;;;;;19.30;8.10;;;;;;;7.62;67.29;101000.09;12188435;19;20007;-78
2022/03/27 03:22:15;;;;;;;17.10;8.27;;;;;;;7.59;67.32;100998.59;12201616;19;20063;-79
2022/03/27 03:26:17;;;;;;;20.07;8.07;;;;;;;7.60;68.26;101002.19;12202989;19;20006;-80
2022/03/27 03:30:20;;;;;;;19.67;9.23;;;;;;;7.56;67.68;101001.75;12188318;19;20078;-80
2022/03/27 03:34:22;;;;;;;16.25;8.80;;;;;;;7.54;68.02;100995.59;12196668;19;20722;-78
2022/03/27 03:38:26;;;;;;;22.45;10.27;;;;;;;7.51;68.27;100994.09;12202370;19;20029;-79
2022/03/27 03:42:28;;;;;;;15.95;8.40;;;;;;;7.48;68.83;100994.50;12173000;19;20019;-80
2022/03/27 03:46:30;;;;;;;21.00;9.32;;;;;;;7.43;69.29;100997.00;12204732;19;20030;-79
2022/03/27 03:50:38;;;;;;;22.25;8.95;;;;;;;7.40;69.69;100994.66;12197169;19;20014;-78
2022/03/27 03:54:40;;;;;;;15.43;8.70;;;;;;;7.38;70.41;100996.78;12171647;19;20078;-79
2022/03/27 03:58:41;;;;;;;26.33;9.85;;;;;;;7.37;69.73;100992.31;12207710;19;20056;-78
2022/03/27 04:02:43;;;;;;;19.02;9.23;;;;;;;7.37;69.96;100984.09;12206175;19;20018;-78
2022/03/27 04:06:45;;;;;;;16.65;8.57;;;;;;;7.38;69.93;100980.31;12176154;19;20500;-78
2022/03/27 04:10:47;;;;;;;16.77;9.20;;;;;;;7.38;69.71;100990.44;12205437;19;20014;-78
2022/03/27 04:14:49;;;;;;;19.08;9.77;;;;;;;7.35;69.46;100985.34;12219130;19;20374;-80
2022/03/27 04:18:51;;;;;;;23.75;8.88;;;;;;;7.33;70.17;100981.97;12190565;19;20014;-79
2022/03/27 04:22:52;;;;;;;15.90;8.52;;;;;;;7.31;69.90;100983.00;12205873;19;20022;-79
2022/03/27 04:26:54;;;;;;;15.82;8.98;;;;;;;7.31;69.84;100984.88;12203723;19;20003;-79
2022/03/27 04:30:56;;;;;;;17.05;9.30;;;;;;;7.28;69.97;100986.13;12181300;19;20014;-78
2022/03/27 04:34:57;;;;;;;16.63;8.27;;;;;;;7.24;70.38;100987.59;12200632;19;20042;-79
2022/03/27 04:38:59;;;;;;;19.90;8.82;;;;;;;7.21;71.07;100985.25;12204945;19;20062;-79
2022/03/27 04:43:02;;;;;;;15.45;8.05;;;;;;;7.23;71.41;100990.53;12188043;19;20523;-79
2022/03/27 04:47:05;;;;;;;18.25;8.77;;;;;;;7.24;71.00;100989.50;12204468;19;20555;-78
2022/03/27 04:51:07;;;;;;;16.23;8.50;;;;;;;7.26;70.95;100993.72;12194856;19;20014;-79
2022/03/27 04:55:09;;;;;;;17.45;9.43;;;;;;;7.26;71.91;100998.38;12181581;19;20034;-78
2022/03/27 04:59:10;;;;;;;14.48;8.93;;;;;;;7.26;71.46;101007.44;12204906;19;20078;-78
2022/03/27 05:03:12;;;;;;;18.15;9.27;;;;;;;7.27;71.90;101000.91;12212103;19;20575;-79
2022/03/27 05:07:14;;;;;;;17.80;8.32;;;;;;;7.25;72.98;101002.97;12190668;19;20046;-79
2022/03/27 05:11:16;;;;;;;15.60;9.02;;;;;;;7.28;72.46;101005.31;12206392;19;20115;-78
2022/03/27 05:15:17;;;;;;;16.33;8.32;;;;;;;7.31;72.60;100999.44;12191324;19;20086;-78
2022/03/27 05:19:19;;;;;;;17.52;9.30;;;;;;;7.33;72.35;101001.16;12215229;19;20025;-78
2022/03/27 05:23:22;;;;;;;17.83;8.82;;;;;;;7.33;73.35;101006.63;12216553;19;20081;-78
2022/03/27 05:27:26;;;;;;;23.40;10.52;;;;;;;7.37;72.97;101000.53;12182710;19;20724;-79
2022/03/27 05:31:28;;;;;;;18.60;9.38;;;;;;;7.43;72.84;100999.72;12207380;19;20058;-79
2022/03/27 05:35:34;;;;;;;20.67;9.32;;;;;;;7.51;72.87;101001.50;12205505;19;20029;-78
2022/03/27 05:39:38;;;;;;;18.80;9.80;;;;;;;7.56;72.77;101006.38;12191645;19;20369;-80
2022/03/27 05:43:39;;;;;;;17.27;9.05;;;;;;;7.57;73.14;101016.31;12208706;19;20019;-79
2022/03/27 05:47:42;;;;;;;17.95;9.25;;;;;;;7.58;73.92;101018.00;12206514;19;20484;-78
2022/03/27 05:51:44;;;;;;;19.08;8.70;;;;;;;7.63;73.97;101018.25;12180663;19;20010;-78
2022/03/27 05:55:47;;;;;;;17.50;9.18;;;;;;;7.71;74.05;101018.09;12208692;19;20021;-78
2022/03/27 05:59:49;;;;;;;18.02;9.15;;;;;;;7.80;74.21;101021.53;12205267;19;20015;-78
2022/03/27 06:03:50;;;;;;;17.02;8.00;;;;;;;7.85;74.13;101024.47;12195835;19;20027;-79
2022/03/27 06:07:58;;;;;;;17.92;9.27;;;;;;;7.96;74.05;101029.41;12208761;19;20857;-78
2022/03/27 06:12:00;;;;;;;16.67;8.60;;;;;;;8.02;74.31;101025.00;12214017;19;20191;-80
2022/03/27 06:16:02;;;;;;;18.20;8.82;;;;;;;8.11;74.54;101030.13;12187275;19;20019;-79
2022/03/27 06:20:05;;;;;;;17.98;8.70;;;;;;;8.16;73.89;101027.63;12216705;19;20041;-79
2022/03/27 06:24:06;;;;;;;21.90;8.30;;;;;;;8.26;74.37;101034.63;12220540;19;20018;-78
2022/03/27 06:28:08;;;;;;;21.30;9.23;;;;;;;8.39;73.87;101037.47;12189313;19;20014;-79
2022/03/27 06:32:09;;;;;;;19.73;9.73;;;;;;;8.56;73.25;101038.78;12202123;19;20042;-79
2022/03/27 06:36:12;;;;;;;18.98;9.57;;;;;;;8.70;73.37;101036.06;12209298;19;20002;-79
2022/03/27 06:40:15;;;;;;;17.60;9.25;;;;;;;8.84;73.88;101030.41;12185099;19;20042;-79
2022/03/27 06:44:17;;;;;;;19.95;9.70;;;;;;;9.02;72.87;101042.69;12208609;19;20073;-79
2022/03/27 06:48:19;;;;;;;16.70;9.48;;;;;;;9.18;73.04;101038.69;12191265;19;20096;-80
2022/03/27 06:52:23;;;;;;;;;;;;;;;9.32;73.08;101045.88;12210906;19;20017;-79
2022/03/27 06:56:27;;;;;;;20.02;9.00;;;;;;;9.50;71.86;101045.25;12214066;19;19986;-80
2022/03/27 07:04:49;;;;;;;16.35;9.35;;;;;;;9.92;71.10;101041.16;12202965;19;20010;-80
2022/03/27 07:08:51;;;;;;;20.23;10.55;;;;;;;10.13;70.75;101040.03;12208243;19;20475;-80
2022/03/27 07:12:53;;;;;;;18.60;9.85;;;;;;;10.36;70.02;101044.22;12189091;19;20014;-81
2022/03/27 07:16:55;;;;;;;20.98;9.75;;;;;;;10.56;69.58;101052.38;12203286;19;20006;-80
2022/03/27 07:20:57;;;;;;;19.27;10.73;;;;;;;10.80;69.30;101045.28;12210600;19;20024;-80
2022/03/27 07:24:59;;;;;;;19.60;9.60;;;;;;;10.99;68.82;101048.97;12189524;19;20087;-80
2022/03/27 07:29:01;;;;;;;18.23;9.80;;;;;;;11.20;68.26;101051.34;12205613;19;20578;-82
2022/03/27 07:33:03;;;;;;;18.17;9.73;;;;;;;11.38;67.95;101056.94;12208396;19;20046;-81
2022/03/27 07:37:05;;;;;;;20.23;10.33;;;;;;;11.67;67.32;101056.50;12188655;19;20067;-80
2022/03/27 07:41:07;;;;;;;20.25;10.25;;;;;;;11.89;66.71;101056.94;12204184;19;20304;-79
2022/03/27 07:45:09;;;;;;;19.48;11.00;;;;;;;12.12;66.17;101068.16;12211608;19;20018;-79
2022/03/27 07:49:11;;;;;;;18.33;10.70;;;;;;;12.31;65.68;101064.34;12184805;19;20035;-78
2022/03/27 07:53:13;;;;;;;18.10;10.45;;;;;;;12.49;65.21;101057.97;12202976;19;20515;-79
2022/03/27 07:57:15;;;;;;;18.97;9.83;;;;;;;12.73;64.75;101060.81;12186732;19;20018;-79
2022/03/27 08:01:18;;;;;;;;;;;;;;;12.86;64.01;101059.81;12209741;19;20029;-82
2022/03/27 08:05:21;;;;;;;19.33;11.07;;;;;;;13.09;63.75;101054.34;12207822;19;19907;-79
2022/03/27 08:09:24;;;;;;;22.45;11.50;;;;;;;13.28;62.74;101057.06;12198880;19;20025;-80
2022/03/27 08:13:26;;;;;;;22.95;12.63;;;;;;;13.44;61.92;101050.84;12201653;19;20027;-81
2022/03/27 08:17:28;;;;;;;20.50;10.93;;;;;;;13.66;61.22;101056.66;12206314;19;20078;-79
2022/03/27 08:21:30;;;;;;;21.08;10.38;;;;;;;13.87;60.31;101060.75;12186470;19;20089;-80
2022/03/27 08:29:53;;;;;;;17.15;10.70;;;;;;;14.38;59.58;101056.34;12213708;19;20928;-80
2022/03/27 08:33:54;;;;;;;19.00;11.68;;;;;;;14.59;58.54;101047.38;12191162;19;20023;-81
2022/03/27 08:37:56;;;;;;;17.88;10.90;;;;;;;14.71;57.63;101060.38;12216533;19;20010;-81
2022/03/27 08:41:58;;;;;;;19.63;10.93;;;;;;;14.84;56.97;101062.00;12213881;19;20006;-81
2022/03/27 08:46:00;;;;;;;20.33;10.53;;;;;;;15.05;56.67;101061.31;12191338;19;20769;-80
2022/03/27 08:50:13;;;;;;;19.55;10.60;;;;;;;15.34;55.95;101061.25;12201384;19;20011;-81
2022/03/27 08:54:25;;;;;;;17.27;10.15;;;;;;;15.35;54.12;101054.59;12177072;19;20015;-81
2022/03/27 08:58:36;;;;;;;17.98;11.07;;;;;;;15.60;54.65;101062.53;12198037;19;20066;-81
2022/03/27 09:02:41;;;;;;;22.25;11.77;;;;;;;15.83;53.69;101061.56;12208797;19;20010;-81
2022/03/27 09:06:43;;;;;;;18.60;10.05;;;;;;;16.01;53.22;101058.50;12184483;19;20007;-81
2022/03/27 09:10:45;;;;;;;20.47;10.93;;;;;;;16.14;52.18;101060.91;12211960;19;20014;-81
2022/03/27 09:14:48;;;;;;;19.45;10.77;;;;;;;16.34;51.54;101063.13;12208982;19;20028;-80
2022/03/27 09:18:58;;;;;;;22.30;12.27;;;;;;;16.38;50.95;101061.50;12194656;19;20089;-80
2022/03/27 09:23:30;;;;;;;23.27;11.85;;;;;;;16.60;50.77;101060.69;12215266;19;21178;-81
2022/03/27 09:27:35;;;;;;;18.90;11.35;;;;;;;16.82;49.98;101060.69;12197738;19;20027;-81
2022/03/27 09:31:37;;;;;;;21.70;11.70;;;;;;;16.87;49.60;101071.06;12216804;19;20554;-80
2022/03/27 09:35:39;;;;;;;;;;;;;;;17.02;48.96;101060.91;12212059;19;20015;-80
2022/03/27 09:39:55;;;;;;;19.23;10.68;;;;;;;17.27;47.87;101049.16;12195224;19;19928;-81
2022/03/27 09:44:02;;;;;;;20.13;11.05;;;;;;;17.49;48.31;101054.69;12206993;19;20048;-80
2022/03/27 09:48:09;;;;;;;19.35;10.30;;;;;;;17.77;47.09;101047.94;12208680;19;20083;-82
2022/03/27 09:52:24;;;;;;;19.83;10.88;;;;;;;18.05;47.20;101051.47;12190806;19;20071;-80
2022/03/27 09:56:29;;;;;;;18.77;11.05;;;;;;;18.28;46.40;101043.78;12218975;19;20023;-81
2022/03/27 10:00:36;;;;;;;20.67;10.65;;;;;;;18.40;46.58;101047.19;12209272;19;20017;-82
2022/03/27 10:05:05;;;;;;;22.23;11.57;;;;;;;18.60;44.77;101033.34;12225705;19;20475;-79
2022/03/27 10:09:09;;;;;;;19.08;11.55;;;;;;;18.80;44.63;101042.91;12214424;19;20026;-81
2022/03/27 10:13:12;;;;;;;21.40;11.50;;;;;;;18.81;44.34;101025.88;12202088;19;20007;-81
2022/03/27 10:17:16;;;;;;;20.20;10.80;;;;;;;18.88;43.40;101040.41;12214061;19;20120;-80
2022/03/27 10:21:23;;;;;;;19.77;11.80;;;;;;;18.66;43.22;101023.84;12194947;19;20039;-80
2022/03/27 10:25:38;;;;;;;16.67;10.10;;;;;;;18.90;42.72;101021.44;12219252;19;20007;-81
2022/03/27 10:29:41;;;;;;;19.55;11.93;;;;;;;19.08;42.91;101022.88;12224932;19;20023;-82
2022/03/27 10:33:44;;;;;;;20.02;10.80;;;;;;;19.30;42.08;101022.63;12197672;19;20007;-81
2022/03/27 10:37:58;;;;;;;;;;;;;;;19.42;41.67;101019.53;12217585;19;20009;-82
2022/03/27 10:42:19;;;;;;;19.33;10.60;;;;;;;19.46;41.91;100997.47;12214459;19;19907;-81
2022/03/27 10:46:24;;;;;;;17.02;8.95;;;;;;;19.63;41.23;101005.53;12191781;19;20077;-83
2022/03/27 10:50:26;;;;;;;16.02;9.23;;;;;;;19.63;38.98;100988.75;12215845;19;20068;-83
2022/03/27 10:54:29;;;;;;;17.83;9.35;;;;;;;19.74;40.20;100994.09;12203438;19;20015;-82
2022/03/27 10:58:40;;;;;;;16.13;9.48;;;;;;;19.88;40.46;100988.75;12233264;19;20010;-79
2022/03/27 11:02:50;;;;;;;14.75;8.93;;;;;;;20.12;39.69;100979.72;12218470;19;20042;-79
2022/03/27 11:07:15;;;;;;;15.77;9.68;;;;;;;20.36;38.72;100972.34;12186309;19;20010;-79
2022/03/27 11:11:35;;;;;;;16.30;9.35;;;;;;;20.40;39.16;100975.41;12202540;19;20003;-79
2022/03/27 11:16:04;;;;;;;14.80;8.90;;;;;;;20.67;39.18;100966.59;12172471;19;20396;-78
2022/03/27 11:20:23;;;;;;;11.35;6.55;;;;;;;20.85;39.30;100963.16;12202244;19;20014;-80
2022/03/27 11:24:26;;;;;;;13.82;8.93;;;;;;;20.81;38.41;100962.03;12184241;19;20022;-78
2022/03/27 11:28:52;;;;;;;11.57;6.95;;;;;;;20.60;37.00;100964.13;12207646;19;20066;-79
2022/03/27 11:33:15;;;;;;;15.10;6.80;;;;;;;20.78;37.51;100954.22;12197190;19;20015;-77
2022/03/27 11:37:25;;;;;;;10.13;5.22;;;;;;;20.80;37.96;100957.56;12184528;19;20010;-78
2022/03/27 11:41:45;;;;;;;13.45;8.57;;;;;;;20.92;37.42;100944.03;12199777;19;20010;-77
2022/03/27 11:45:48;;;;;;;14.10;8.65;;;;;;;21.24;37.70;100942.66;12175703;19;20360;-77
2022/03/27 11:49:52;;;;;;;16.75;7.97;;;;;;;21.49;37.35;100952.81;12198872;19;20102;-78
2022/03/27 11:53:55;;;;;;;14.40;8.23;;;;;;;21.76;36.19;100941.03;12179507;19;20075;-78
2022/03/27 11:57:58;;;;;;;14.85;8.82;;;;;;;22.55;35.95;100934.19;12176831;19;20011;-77
2022/03/27 12:02:02;;;;;;;16.92;9.20;;;;;;;23.13;35.09;100933.88;12196553;19;20014;-78
2022/03/27 12:06:09;;;;;;;14.50;8.98;;;;;;;23.43;34.32;100933.34;12188028;19;20021;-78
2022/03/27 12:10:11;;;;;;;15.90;10.02;;;;;;;23.95;33.99;100919.16;12166287;19;20083;-78
2022/03/27 12:14:12;;;;;;;17.03;9.33;;;;;;;24.34;32.94;100923.41;12197087;19;20010;-78
2022/03/27 12:18:25;;;;;;;12.20;8.07;;;;;;;24.55;32.37;100919.00;12191492;19;20817;-78
2022/03/27 12:22:41;;;;;;;11.57;7.35;;;;;;;24.90;32.54;100907.19;12203164;19;20074;-78
2022/03/27 12:31:03;;;;;;;14.70;6.95;;;;;;;25.78;30.63;100904.59;12172527;19;20027;-78
2022/03/27 12:35:06;;;;;;;13.75;8.20;;;;;;;25.65;29.34;100894.25;12192702;19;20029;-78
2022/03/27 12:39:14;;;;;;;13.48;8.10;;;;;;;25.94;29.48;100884.41;12192720;19;20019;-78
2022/03/27 12:43:16;;;;;;;8.88;6.60;;;;;;;26.08;29.38;100876.63;12174471;19;20074;-78
2022/03/27 12:47:18;;;;;;;12.02;6.93;;;;;;;26.33;28.58;100880.69;12194785;19;20019;-78
2022/03/27 12:51:20;;;;;;;7.95;6.10;;;;;;;26.96;28.06;100882.06;12168633;19;20009;-78
2022/03/27 12:55:26;;;;;;;9.30;6.85;;;;;;;27.27;27.92;100887.50;12191796;19;20014;-78
2022/03/27 12:59:28;;;;;;;11.85;7.38;;;;;;;27.29;27.44;100877.88;12193976;19;20023;-78
2022/03/27 13:03:29;;;;;;;10.52;6.85;;;;;;;27.71;27.46;100879.69;12176125;19;20397;-78
2022/03/27 13:07:52;;;;;;;11.73;7.07;;;;;;;27.95;26.10;100875.44;12188138;19;20031;-78
2022/03/27 13:11:54;;;;;;;13.05;7.03;;;;;;;28.34;26.11;100874.19;12186280;19;20078;-79
2022/03/27 13:15:56;;;;;;;11.75;7.95;;;;;;;28.67;26.00;100866.97;12160769;19;20018;-79
2022/03/27 13:19:57;;;;;;;10.57;7.68;;;;;;;27.95;26.36;100856.44;12193225;19;20558;-79
2022/03/27 13:24:01;;;;;;;10.32;6.90;;;;;;;26.01;27.80;100848.88;12200100;19;20551;-78
2022/03/27 13:28:04;;;;;;;10.57;6.80;;;;;;;24.50;29.06;100848.66;12170516;19;20039;-78
2022/03/27 13:32:07;;;;;;;10.57;6.20;;;;;;;23.51;30.78;100830.53;12192304;19;20007;-78
2022/03/27 13:36:09;;;;;;;12.10;5.88;;;;;;;23.53;30.93;100835.81;12174617;19;20031;-78
2022/03/27 13:40:11;;;;;;;11.13;5.00;;;;;;;23.34;31.26;100833.13;12176215;19;20011;-78
2022/03/27 13:44:16;;;;;;;10.93;5.93;;;;;;;22.90;32.19;100832.50;12184421;19;20070;-78
2022/03/27 13:48:19;;;;;;;10.40;5.85;;;;;;;23.38;32.05;100832.19;12186502;19;20027;-77
2022/03/27 13:52:21;;;;;;;12.33;5.60;;;;;;;24.26;31.05;100831.19;12206079;19;20469;-78
2022/03/27 13:56:22;;;;;;;10.30;6.93;;;;;;;25.44;30.09;100826.25;12205596;19;20010;-78
2022/03/27 14:00:25;;;;;;;8.65;6.05;;;;;;;26.37;28.72;100817.53;12184554;19;20597;-78
2022/03/27 14:04:27;;;;;;;9.63;6.75;;;;;;;26.63;28.21;100816.72;12212319;19;20010;-78
2022/03/27 14:08:29;;;;;;;11.77;6.70;;;;;;;26.47;28.46;100809.88;12197686;19;20011;-78
2022/03/27 14:12:33;;;;;;;13.38;8.75;;;;;;;25.18;29.35;100807.22;12182870;19;20025;-78
2022/03/27 14:16:37;;;;;;;10.98;6.82;;;;;;;24.55;30.42;100795.03;12191971;19;20014;-78
2022/03/27 14:20:39;;;;;;;8.20;6.07;;;;;;;24.03;30.99;100797.34;12198016;19;20098;-78
2022/03/27 14:24:41;;;;;;;8.85;6.53;;;;;;;23.55;31.53;100796.97;12174173;19;20151;-78
2022/03/27 14:28:43;;;;;;;9.60;6.53;;;;;;;23.07;31.98;100788.94;12181713;19;20007;-78
2022/03/27 14:32:45;;;;;;;9.27;6.07;;;;;;;22.75;32.32;100782.16;12189136;19;20573;-77
2022/03/27 14:36:47;;;;;;;10.57;6.90;;;;;;;22.61;32.74;100773.72;12177151;19;20020;-77
2022/03/27 14:40:49;;;;;;;12.05;6.13;;;;;;;22.77;32.42;100779.06;12199471;19;20086;-78
2022/03/27 14:44:51;;;;;;;10.52;6.68;;;;;;;23.22;32.30;100779.38;12206043;19;20171;-77
2022/03/27 14:48:53;;;;;;;12.48;6.40;;;;;;;23.92;32.07;100776.22;12177121;19;20006;-78
2022/03/27 14:52:55;;;;;;;8.37;5.93;;;;;;;24.68;30.95;100769.91;12201266;19;20033;-78
2022/03/27 14:56:57;;;;;;;10.77;6.75;;;;;;;24.81;30.37;100762.50;12199108;19;20332;-78
2022/03/27 15:01:01;;;;;;;9.02;5.40;;;;;;;24.70;30.60;100756.34;12186040;19;20007;-78
2022/03/27 15:05:05;;;;;;;9.27;5.15;;;;;;;25.28;30.12;100755.31;12203485;19;20627;-77
2022/03/27 15:09:07;;;;;;;11.70;5.43;;;;;;;25.57;29.65;100754.75;12206474;19;20014;-77
2022/03/27 15:13:09;;;;;;;7.32;5.07;;;;;;;24.23;31.06;100753.81;12180063;19;20021;-77
2022/03/27 15:17:11;;;;;;;15.05;6.03;;;;;;;24.23;31.53;100747.34;12194614;19;20019;-77
2022/03/27 15:21:12;;;;;;;11.07;6.35;;;;;;;23.93;31.93;100752.56;12209214;19;20027;-78
2022/03/27 15:25:14;;;;;;;11.47;6.70;;;;;;;23.66;31.68;100737.34;12188683;19;20015;-79
2022/03/27 15:29:16;;;;;;;12.13;6.50;;;;;;;23.48;31.74;100729.06;12203151;19;20264;-78
2022/03/27 15:33:19;;;;;;;11.40;6.18;;;;;;;23.25;32.34;100733.75;12180406;19;20267;-78
2022/03/27 15:37:21;;;;;;;10.27;5.90;;;;;;;23.53;32.14;100732.59;12190185;19;20065;-78
2022/03/27 15:41:23;;;;;;;8.02;4.97;;;;;;;23.65;32.12;100729.25;12207853;19;20015;-79
2022/03/27 15:45:27;;;;;;;11.70;6.93;;;;;;;23.34;32.34;100727.06;12186039;19;20022;-79
2022/03/27 15:49:32;;;;;;;9.55;5.72;;;;;;;23.15;33.06;100724.38;12206459;19;20068;-78
2022/03/27 15:53:34;;;;;;;11.30;6.47;;;;;;;22.79;33.44;100731.81;12202044;19;20014;-79
2022/03/27 15:57:37;;;;;;;11.50;6.22;;;;;;;22.85;33.70;100733.38;12181955;19;20026;-78
2022/03/27 16:01:40;;;;;;;8.75;5.38;;;;;;;23.07;33.74;100729.91;12206971;19;20015;-78
2022/03/27 16:05:41;;;;;;;11.63;7.00;;;;;;;23.02;33.14;100730.00;12202516;19;20035;-79
2022/03/27 16:09:45;;;;;;;17.07;10.57;;;;;;;22.95;33.22;100733.22;12186207;19;20017;-78
2022/03/27 16:13:46;;;;;;;9.55;6.35;;;;;;;22.58;34.41;100735.00;12203601;19;20252;-79
2022/03/27 16:17:51;;;;;;;11.87;5.87;;;;;;;22.46;34.42;100729.03;12219030;19;20014;-79
2022/03/27 16:21:52;;;;;;;9.85;6.05;;;;;;;22.28;34.49;100725.97;12188650;19;20022;-78
2022/03/27 16:25:54;;;;;;;8.80;5.63;;;;;;;22.26;34.72;100731.03;12212347;19;20010;-78
2022/03/27 16:29:57;;;;;;;9.88;6.13;;;;;;;22.22;34.40;100729.13;12251447;19;20010;-78
2022/03/27 16:34:00;;;;;;;9.45;6.25;;;;;;;22.03;34.49;100727.16;12222108;19;20062;-78
2022/03/27 16:38:03;;;;;;;9.80;5.57;;;;;;;21.74;35.16;100721.69;12232225;19;20136;-78
2022/03/27 16:42:06;;;;;;;7.25;4.97;;;;;;;21.80;35.34;100719.66;12204766;19;20077;-78
2022/03/27 16:46:07;;;;;;;10.02;6.07;;;;;;;21.85;35.63;100722.38;12181625;19;20102;-77
2022/03/27 16:50:09;;;;;;;9.20;5.70;;;;;;;21.83;35.18;100721.84;12196795;19;20043;-77
2022/03/27 16:54:12;;;;;;;9.68;5.93;;;;;;;21.83;35.35;100713.44;12220378;19;20466;-80
2022/03/27 16:58:18;;;;;;;12.32;6.00;;;;;;;21.77;35.98;100707.09;12193363;19;20038;-79
2022/03/27 17:02:21;;;;;;;8.52;5.75;;;;;;;21.76;35.57;100710.19;12216966;19;20042;-80
2022/03/27 17:06:23;;;;;;;9.18;5.50;;;;;;;21.58;36.08;100714.63;12193779;19;20023;-79
2022/03/27 17:10:25;;;;;;;8.97;5.80;;;;;;;21.51;35.71;100717.00;12213397;19;20458;-80
2022/03/27 17:14:31;;;;;;;10.23;5.82;;;;;;;21.07;36.64;100709.66;12204294;19;20013;-79
2022/03/27 17:18:33;;;;;;;7.33;5.10;;;;;;;20.62;37.42;100717.44;12199170;19;20070;-79
2022/03/27 17:23:00;;;;;;;8.40;5.55;;;;;;;20.10;38.17;100719.78;12214881;19;20015;-80
2022/03/27 17:27:02;;;;;;;9.55;4.70;;;;;;;19.74;38.74;100710.81;12217413;19;20021;-79
2022/03/27 17:31:04;;;;;;;8.37;4.63;;;;;;;19.41;39.33;100718.78;12191158;19;20739;-79
2022/03/27 17:35:08;;;;;;;8.88;5.20;;;;;;;19.22;39.74;100715.81;12208292;19;20086;-78
2022/03/27 17:39:10;;;;;;;9.02;5.07;;;;;;;19.03;40.46;100712.78;12214928;19;20018;-79
2022/03/27 17:43:12;;;;;;;7.97;5.05;;;;;;;18.80;40.60;100713.41;12183240;19;20142;-79
2022/03/27 17:47:13;;;;;;;7.43;4.95;;;;;;;18.39;41.36;100722.66;12213355;19;20006;-79
2022/03/27 17:51:15;;;;;;;8.90;5.10;;;;;;;17.91;42.22;100718.47;12187011;19;20024;-79
2022/03/27 17:55:17;;;;;;;9.80;5.73;;;;;;;17.48;42.86;100707.44;12204723;19;20022;-79
2022/03/27 17:59:19;;;;;;;10.27;5.77;;;;;;;17.14;43.45;100718.19;12211456;19;20010;-79
2022/03/27 18:03:22;;;;;;;9.60;5.85;;;;;;;16.83;43.89;100709.66;12179226;19;20495;-79
2022/03/27 18:07:25;;;;;;;13.15;5.43;;;;;;;16.57;44.60;100725.34;12212327;19;20465;-79
2022/03/27 18:11:28;;;;;;;9.35;5.78;;;;;;;16.31;45.72;100729.03;12211453;19;20010;-79
2022/03/27 18:15:30;;;;;;;10.25;5.68;;;;;;;16.14;46.00;100734.72;12181820;19;20119;-79
2022/03/27 18:19:33;;;;;;;10.77;5.35;;;;;;;15.91;46.66;100733.13;12214222;19;20448;-79
2022/03/27 18:23:39;;;;;;;;;;;;;;;15.72;47.30;100741.81;12215389;19;20014;-79
2022/03/27 18:27:40;;;;;;;10.57;5.32;;;;;;;15.59;47.07;100738.59;12188599;19;19911;-79
2022/03/27 18:31:42;;;;;;;9.80;5.30;;;;;;;15.44;48.42;100742.03;12202116;19;20014;-79
2022/03/27 18:35:45;;;;;;;9.85;5.72;;;;;;;15.27;49.07;100747.66;12212049;19;20003;-79
2022/03/27 18:39:47;;;;;;;9.38;5.47;;;;;;;15.17;49.87;100753.06;12182767;19;20050;-79
2022/03/27 18:43:51;;;;;;;10.55;6.03;;;;;;;15.08;50.01;100749.91;12203323;19;20010;-79
2022/03/27 18:47:53;;;;;;;9.50;5.35;;;;;;;14.97;50.56;100753.66;12209507;19;20017;-80
2022/03/27 18:51:54;;;;;;;9.00;5.03;;;;;;;14.89;51.68;100756.84;12185198;19;20511;-79